createdAt,value
2023-01-10T00:01:46.005Z,101247.66
2023-01-10T00:04:14.287Z,101249.44
2023-01-10T00:06:42.429Z,101211.06
2023-01-10T00:09:11.830Z,101304.78
2023-01-10T00:11:57.981Z,101229.53
2023-01-10T00:14:29.047Z,101290.00
2023-01-10T00:16:57.553Z,101323.56
2023-01-10T00:19:25.364Z,101334.38
2023-01-10T00:21:53.557Z,101286.91
2023-01-10T00:24:22.394Z,101281.19
2023-01-10T00:26:51.776Z,101255.91
2023-01-10T00:29:26.103Z,101307.22
2023-01-10T00:31:54.593Z,101328.97
2023-01-10T00:34:23.323Z,101309.75
2023-01-10T00:36:51.080Z,101320.13
2023-01-10T00:39:21.560Z,101304.59
2023-01-10T00:42:07.925Z,101356.72
2023-01-10T00:44:35.741Z,101336.22
2023-01-10T00:47:03.582Z,101331.06
2023-01-10T00:49:33.832Z,101275.16
2023-01-10T00:52:02.873Z,101319.84
2023-01-10T00:54:30.654Z,101324.34
2023-01-10T00:57:01.393Z,101271.09
2023-01-10T00:59:30.362Z,101315.53
2023-01-10T01:01:58.292Z,101329.66
2023-01-10T01:04:27.428Z,101363.78
2023-01-10T01:06:55.089Z,101383.88
2023-01-10T01:09:22.746Z,101328.94
2023-01-10T01:11:50.447Z,101292.88
2023-01-10T01:14:18.201Z,101342.38
2023-01-10T01:16:45.863Z,101347.31
2023-01-10T01:19:13.588Z,101384.19
2023-01-10T01:21:41.299Z,101373.47
2023-01-10T01:24:10.963Z,101369.88
2023-01-10T01:26:40.371Z,101300.53
2023-01-10T01:29:08.241Z,101360.44
2023-01-10T01:31:36.070Z,101319.72
2023-01-10T01:34:04.002Z,101352.75
2023-01-10T01:36:31.925Z,101310.53
2023-01-10T01:38:59.721Z,101277.56
2023-01-10T01:41:45.888Z,101323.06
2023-01-10T01:44:18.796Z,101334.09
2023-01-10T01:47:09.244Z,101338.91
2023-01-10T01:49:40.661Z,101369.44
2023-01-10T01:52:22.556Z,101372.41
2023-01-10T01:54:50.618Z,101337.34
2023-01-10T01:57:24.883Z,101392.97
2023-01-10T01:59:55.322Z,101337.13
2023-01-10T02:02:27.357Z,101409.81
2023-01-10T02:05:00.449Z,101409.56
2023-01-10T02:07:32.078Z,101411.94
2023-01-10T02:10:04.967Z,101347.81
2023-01-10T02:12:33.390Z,101393.66
2023-01-10T02:15:02.955Z,101376.00
2023-01-10T02:17:31.376Z,101396.81
2023-01-10T02:20:03.601Z,101403.31
2023-01-10T02:22:53.262Z,101417.38
2023-01-10T02:25:51.355Z,101414.06
2023-01-10T02:28:22.442Z,101416.78
2023-01-10T02:31:16.098Z,101355.66
2023-01-10T02:33:58.059Z,101385.22
2023-01-10T02:36:39.951Z,101354.28
2023-01-10T02:39:19.910Z,101429.38
2023-01-10T02:42:11.897Z,101433.91
2023-01-10T02:44:50.727Z,101429.78
2023-01-10T02:47:19.476Z,101380.03
2023-01-10T02:49:52.272Z,101436.28
2023-01-10T02:52:27.905Z,101411.94
2023-01-10T02:55:00.900Z,101435.22
2023-01-10T02:58:08.350Z,101427.25
2023-01-10T03:00:45.608Z,101449.84
2023-01-10T03:03:33.760Z,101444.09
2023-01-10T03:06:26.671Z,101455.66
2023-01-10T03:09:06.621Z,101451.84
2023-01-10T03:11:41.195Z,101458.91
2023-01-10T03:14:16.725Z,101365.44
2023-01-10T03:16:49.331Z,101469.53
2023-01-10T03:19:21.708Z,101432.97
2023-01-10T03:21:54.032Z,101474.06
2023-01-10T03:24:29.984Z,101432.72
2023-01-10T03:27:20.425Z,101400.13
2023-01-10T03:30:15.917Z,101498.47
2023-01-10T03:32:44.365Z,101467.88
2023-01-10T03:35:14.046Z,101490.25
2023-01-10T03:37:59.086Z,101464.91
2023-01-10T03:40:46.930Z,101495.75
2023-01-10T03:43:45.196Z,101495.50
2023-01-10T03:46:26.343Z,101476.94
2023-01-10T03:48:55.458Z,101450.44
2023-01-10T03:51:24.065Z,101433.94
2023-01-10T03:53:51.808Z,101472.44
2023-01-10T03:56:19.650Z,101439.44
2023-01-10T03:58:47.821Z,101461.44
2023-01-10T04:01:15.679Z,101419.31
2023-01-10T04:03:43.738Z,101466.22
2023-01-10T04:06:11.506Z,101373.06
2023-01-10T04:08:39.243Z,101457.16
2023-01-10T04:11:07.083Z,101454.19
2023-01-10T04:13:35.171Z,101464.34
2023-01-10T04:16:03.089Z,101415.34
2023-01-10T04:18:30.940Z,101481.31
2023-01-10T04:20:58.869Z,101465.53
2023-01-10T04:23:26.747Z,101456.59
2023-01-10T04:25:54.434Z,101430.19
2023-01-10T04:28:24.441Z,101435.81
2023-01-10T04:30:52.604Z,101368.94
2023-01-10T04:33:20.448Z,101400.38
2023-01-10T04:35:52.391Z,101445.16
2023-01-10T04:38:20.566Z,101464.78
2023-01-10T04:40:56.031Z,101444.03
2023-01-10T04:43:25.249Z,101478.41
2023-01-10T04:45:53.070Z,101482.69
2023-01-10T04:48:21.274Z,101447.09
2023-01-10T04:50:52.581Z,101488.44
2023-01-10T04:53:21.344Z,101480.31
2023-01-10T04:55:49.154Z,101414.69
2023-01-10T04:58:17.274Z,101474.97
2023-01-10T05:00:45.140Z,101467.88
2023-01-10T05:03:13.043Z,101461.69
2023-01-10T05:05:40.759Z,101426.34
2023-01-10T05:08:08.500Z,101485.47
2023-01-10T05:10:36.284Z,101424.84
2023-01-10T05:13:04.191Z,101451.78
2023-01-10T05:15:31.845Z,101476.88
2023-01-10T05:18:01.282Z,101460.47
2023-01-10T05:20:29.113Z,101517.84
2023-01-10T05:22:57.060Z,101522.53
2023-01-10T05:25:24.963Z,101523.00
2023-01-10T05:27:52.746Z,101492.91
2023-01-10T05:30:20.704Z,101445.88
2023-01-10T05:32:48.421Z,101519.16
2023-01-10T05:35:17.398Z,101512.59
2023-01-10T05:37:45.814Z,101541.56
2023-01-10T05:40:13.817Z,101543.63
2023-01-10T05:42:42.205Z,101532.91
2023-01-10T05:45:10.462Z,101517.31
2023-01-10T05:47:39.755Z,101522.75
2023-01-10T05:50:08.246Z,101489.91
2023-01-10T05:52:36.136Z,101483.19
2023-01-10T05:55:04.240Z,101553.38
2023-01-10T05:57:32.278Z,101574.88
2023-01-10T06:00:00.810Z,101540.97
2023-01-10T06:02:29.294Z,101559.69
2023-01-10T06:04:57.370Z,101565.75
2023-01-10T06:07:25.565Z,101562.22
2023-01-10T06:09:53.252Z,101581.47
2023-01-10T06:12:21.232Z,101565.47
2023-01-10T06:14:48.967Z,101571.59
2023-01-10T06:17:19.283Z,101535.00
2023-01-10T06:19:49.752Z,101555.59
2023-01-10T06:22:17.552Z,101532.13
2023-01-10T06:24:46.634Z,101582.50
2023-01-10T06:27:14.511Z,101535.47
2023-01-10T06:29:42.268Z,101581.19
2023-01-10T06:32:10.328Z,101510.75
2023-01-10T06:34:37.994Z,101544.88
2023-01-10T06:37:05.984Z,101539.16
2023-01-10T06:39:33.726Z,101540.69
2023-01-10T06:42:02.491Z,101583.31
2023-01-10T06:44:30.119Z,101592.69
2023-01-10T06:46:57.911Z,101589.50
2023-01-10T06:49:25.635Z,101536.00
2023-01-10T06:51:53.527Z,101585.28
2023-01-10T06:54:21.660Z,101551.97
2023-01-10T06:56:49.612Z,101587.56
2023-01-10T06:59:17.441Z,101499.22
2023-01-10T07:01:45.408Z,101521.53
2023-01-10T07:04:13.385Z,101559.97
2023-01-10T07:06:41.792Z,101471.31
2023-01-10T07:09:09.513Z,101580.16
2023-01-10T07:11:37.620Z,101592.56
2023-01-10T07:14:05.598Z,101570.66
2023-01-10T07:16:33.276Z,101553.81
2023-01-10T07:19:01.272Z,101580.34
2023-01-10T07:21:29.062Z,101565.00
2023-01-10T07:23:56.816Z,101576.94
2023-01-10T07:26:24.598Z,101614.81
2023-01-10T07:28:52.338Z,101578.06
2023-01-10T07:31:23.670Z,101594.91
2023-01-10T07:33:52.853Z,101554.47
2023-01-10T07:36:21.664Z,101610.97
2023-01-10T07:38:49.345Z,101625.66
2023-01-10T07:41:17.133Z,101620.81
2023-01-10T07:43:44.833Z,101587.88
2023-01-10T07:46:12.744Z,101642.34
2023-01-10T07:48:43.169Z,101584.03
2023-01-10T07:51:10.947Z,101630.38
2023-01-10T07:53:39.351Z,101652.94
2023-01-10T07:56:07.389Z,101657.31
2023-01-10T07:58:35.962Z,101669.03
2023-01-10T08:01:05.547Z,101619.81
2023-01-10T08:03:33.821Z,101690.25
2023-01-10T08:06:06.772Z,101687.03
2023-01-10T08:08:35.226Z,101692.22
2023-01-10T08:11:03.668Z,101633.56
2023-01-10T08:13:34.492Z,101655.66
2023-01-10T08:16:06.441Z,101682.22
2023-01-10T08:18:35.221Z,101702.25
2023-01-10T08:21:03.122Z,101618.50
2023-01-10T08:23:32.516Z,101671.56
2023-01-10T08:26:00.376Z,101637.50
2023-01-10T08:28:29.247Z,101635.50
2023-01-10T08:30:57.423Z,101665.97
2023-01-10T08:33:25.688Z,101630.41
2023-01-10T08:35:53.442Z,101623.75
2023-01-10T08:38:21.035Z,101684.38
2023-01-10T08:40:48.934Z,101602.06
2023-01-10T08:43:18.034Z,101656.94
2023-01-10T08:45:45.907Z,101632.06
2023-01-10T08:48:14.435Z,101696.88
2023-01-10T08:50:42.150Z,101681.91
2023-01-10T08:53:10.870Z,101690.91
2023-01-10T08:55:38.685Z,101683.47
2023-01-10T08:58:06.848Z,101710.19
2023-01-10T09:00:34.696Z,101715.94
2023-01-10T09:03:02.396Z,101677.09
2023-01-10T09:05:30.162Z,101722.25
2023-01-10T09:08:02.427Z,101692.75
2023-01-10T09:10:30.789Z,101739.13
2023-01-10T09:13:01.992Z,101711.50
2023-01-10T09:15:33.196Z,101708.47
2023-01-10T09:18:04.832Z,101689.25
2023-01-10T09:20:34.944Z,101668.81
2023-01-10T09:23:11.031Z,101722.50
2023-01-10T09:25:39.266Z,101740.81
2023-01-10T09:28:07.242Z,101703.03
2023-01-10T09:30:35.367Z,101684.47
2023-01-10T09:33:04.190Z,101688.50
2023-01-10T09:35:34.964Z,101695.91
2023-01-10T09:38:03.338Z,101718.06
2023-01-10T09:40:58.139Z,101747.97
2023-01-10T09:43:35.947Z,101752.84
2023-01-10T09:46:21.298Z,101754.22
2023-01-10T09:49:07.422Z,101772.44
2023-01-10T09:51:40.712Z,101753.16
2023-01-10T09:54:33.470Z,101727.13
2023-01-10T09:57:02.357Z,101698.41
2023-01-10T09:59:38.331Z,101743.38
2023-01-10T10:02:25.268Z,101743.63
2023-01-10T10:05:02.028Z,101747.16
2023-01-10T10:07:30.721Z,101701.91
2023-01-10T10:09:58.916Z,101695.31
2023-01-10T10:12:45.993Z,101751.22
2023-01-10T10:15:29.095Z,101747.66
2023-01-10T10:18:16.852Z,101763.97
2023-01-10T10:20:58.994Z,101695.19
2023-01-10T10:24:00.356Z,101726.91
2023-01-10T10:26:39.844Z,101750.00
2023-01-10T10:29:45.475Z,101763.16
2023-01-10T10:32:28.342Z,101764.44
2023-01-10T10:35:05.395Z,101764.72
2023-01-10T10:37:48.319Z,101743.09
2023-01-10T10:40:22.297Z,101761.47
2023-01-10T10:42:54.055Z,101731.47
2023-01-10T10:45:54.712Z,101758.28
2023-01-10T10:48:27.417Z,101747.97
2023-01-10T10:51:27.504Z,101740.38
2023-01-10T10:53:57.552Z,101727.88
2023-01-10T10:56:27.798Z,101719.91
2023-01-10T10:58:58.636Z,101717.34
2023-01-10T11:01:27.191Z,101719.00
2023-01-10T11:04:02.419Z,101712.75
2023-01-10T11:06:34.290Z,101729.28
2023-01-10T11:09:04.983Z,101720.28
2023-01-10T11:11:35.880Z,101655.22
2023-01-10T11:14:06.385Z,101683.31
2023-01-10T11:16:37.337Z,101699.97
2023-01-10T11:19:19.740Z,101673.44
2023-01-10T11:22:08.561Z,101691.56
2023-01-10T11:24:50.349Z,101579.91
2023-01-10T11:27:24.672Z,101627.00
2023-01-10T11:30:03.694Z,101612.81
2023-01-10T11:32:35.803Z,101693.78
2023-01-10T11:35:09.829Z,101688.34
2023-01-10T11:37:37.591Z,101679.00
2023-01-10T11:40:24.232Z,101651.34
2023-01-10T11:42:59.234Z,101606.75
2023-01-10T11:45:31.579Z,101658.53
2023-01-10T11:48:08.649Z,101671.50
2023-01-10T11:50:41.381Z,101664.78
2023-01-10T11:53:37.092Z,101697.94
2023-01-10T11:56:05.678Z,101655.28
2023-01-10T11:58:36.841Z,101601.69
2023-01-10T12:01:04.927Z,101625.66
2023-01-10T12:03:37.251Z,101647.16
2023-01-10T12:06:09.511Z,101683.78
2023-01-10T12:08:39.583Z,101681.81
2023-01-10T12:11:25.244Z,101679.47
2023-01-10T12:13:58.840Z,101677.00
2023-01-10T12:16:32.447Z,101677.00
2023-01-10T12:19:04.821Z,101654.66
2023-01-10T12:21:41.475Z,101656.41
2023-01-10T12:24:19.292Z,101625.53
2023-01-10T12:26:48.140Z,101598.38
2023-01-10T12:29:19.635Z,101596.75
2023-01-10T12:31:47.502Z,101600.34
2023-01-10T12:34:23.388Z,101648.00
2023-01-10T12:36:58.573Z,101646.03
2023-01-10T12:39:35.196Z,101538.16
2023-01-10T12:42:37.671Z,101632.78
2023-01-10T12:45:08.812Z,101606.88
2023-01-10T12:48:10.745Z,101629.53
2023-01-10T12:50:46.373Z,101622.97
2023-01-10T12:53:33.125Z,101631.41
2023-01-10T12:56:06.140Z,101574.38
2023-01-10T12:58:52.912Z,101614.91
2023-01-10T13:01:30.019Z,101612.69
2023-01-10T13:04:03.819Z,101608.91
2023-01-10T13:06:40.182Z,101611.38
2023-01-10T13:09:30.604Z,101510.53
2023-01-10T13:12:09.541Z,101592.50
2023-01-10T13:14:46.183Z,101582.69
2023-01-10T13:17:20.034Z,101593.09
2023-01-10T13:20:16.528Z,101578.63
2023-01-10T13:22:48.154Z,101577.25
2023-01-10T13:25:38.018Z,101576.75
2023-01-10T13:28:14.893Z,101580.88
2023-01-10T13:30:42.913Z,101529.84
2023-01-10T13:33:26.066Z,101570.84
2023-01-10T13:35:58.034Z,101568.16
2023-01-10T13:38:35.521Z,101572.50
2023-01-10T13:41:29.200Z,101514.63
2023-01-10T13:44:07.267Z,101543.56
2023-01-10T13:46:40.941Z,101516.56
2023-01-10T13:49:11.715Z,101553.47
2023-01-10T13:51:59.792Z,101540.38
2023-01-10T13:54:28.485Z,101490.09
2023-01-10T13:56:56.366Z,101529.72
2023-01-10T13:59:42.647Z,101553.47
2023-01-10T14:02:28.989Z,101546.88
2023-01-10T14:05:06.172Z,101544.16
2023-01-10T14:07:41.895Z,101537.38
2023-01-10T14:10:19.855Z,101544.16
2023-01-10T14:12:57.218Z,101536.28
2023-01-10T14:15:38.977Z,101514.75
2023-01-10T14:18:06.718Z,101530.31
2023-01-10T14:20:36.743Z,101525.66
2023-01-10T14:23:16.420Z,101531.94
2023-01-10T14:25:45.734Z,101521.81
2023-01-10T14:28:25.474Z,101488.25
2023-01-10T14:31:08.928Z,101474.00
2023-01-10T14:33:37.785Z,101469.13
2023-01-10T14:36:14.745Z,101540.69
2023-01-10T14:38:46.707Z,101531.88
2023-01-10T14:41:28.062Z,101505.44
2023-01-10T14:44:11.772Z,101503.19
2023-01-10T14:46:52.406Z,101523.44
2023-01-10T14:49:24.558Z,101540.41
2023-01-10T14:52:10.835Z,101533.28
2023-01-10T14:54:38.676Z,101523.44
2023-01-10T14:57:19.094Z,101453.44
2023-01-10T14:59:48.059Z,101516.09
2023-01-10T15:02:26.007Z,101492.88
2023-01-10T15:05:09.667Z,101487.09
2023-01-10T15:07:38.501Z,101533.81
2023-01-10T15:10:25.064Z,101532.19
2023-01-10T15:12:57.552Z,101532.97
2023-01-10T15:15:32.593Z,101516.31
2023-01-10T15:18:05.639Z,101449.38
2023-01-10T15:20:37.528Z,101503.75
2023-01-10T15:23:05.371Z,101484.28
2023-01-10T15:25:39.039Z,101492.81
2023-01-10T15:28:15.761Z,101490.09
2023-01-10T15:30:44.367Z,101513.03
2023-01-10T15:33:27.061Z,101496.63
2023-01-10T15:35:55.907Z,101514.63
2023-01-10T15:38:30.237Z,101444.16
2023-01-10T15:41:04.370Z,101466.03
2023-01-10T15:43:35.028Z,101513.59
2023-01-10T15:46:05.607Z,101519.56
2023-01-10T15:48:41.032Z,101523.09
2023-01-10T15:51:25.817Z,101530.72
2023-01-10T15:53:57.481Z,101504.84
2023-01-10T15:56:30.174Z,101466.84
2023-01-10T15:59:00.108Z,101497.75
2023-01-10T16:01:29.138Z,101516.66
2023-01-10T16:04:03.997Z,101513.88
2023-01-10T16:06:31.762Z,101521.31
2023-01-10T16:09:03.694Z,101400.09
2023-01-10T16:12:05.313Z,101432.00
2023-01-10T16:14:33.816Z,101492.66
2023-01-10T16:17:05.133Z,101445.69
2023-01-10T16:19:33.156Z,101448.66
2023-01-10T16:22:01.318Z,101476.28
2023-01-10T16:24:32.366Z,101529.50
2023-01-10T16:27:04.410Z,101483.66
2023-01-10T16:29:32.821Z,101489.06
2023-01-10T16:32:00.564Z,101509.78
2023-01-10T16:34:28.559Z,101471.50
2023-01-10T16:36:56.510Z,101536.00
2023-01-10T16:39:24.850Z,101515.78
2023-01-10T16:42:11.483Z,101476.72
2023-01-10T16:44:40.490Z,101434.91
2023-01-10T16:47:08.198Z,101500.75
2023-01-10T16:49:36.040Z,101496.69
2023-01-10T16:52:04.080Z,101521.22
2023-01-10T16:54:35.540Z,101498.56
2023-01-10T16:57:03.619Z,101492.50
2023-01-10T16:59:31.910Z,101529.69
2023-01-10T17:01:59.829Z,101547.38
2023-01-10T17:04:35.255Z,101546.25
2023-01-10T17:07:03.472Z,101545.66
2023-01-10T17:09:31.466Z,101554.88
2023-01-10T17:12:11.096Z,101524.53
2023-01-10T17:14:39.228Z,101545.31
2023-01-10T17:17:06.968Z,101544.16
2023-01-10T17:19:34.862Z,101570.06
2023-01-10T17:22:02.937Z,101568.94
2023-01-10T17:24:31.135Z,101572.97
2023-01-10T17:26:58.956Z,101546.66
2023-01-10T17:29:26.781Z,101584.16
2023-01-10T17:31:54.601Z,101561.09
2023-01-10T17:34:22.555Z,101600.50
2023-01-10T17:36:50.436Z,101586.53
2023-01-10T17:39:18.260Z,101561.56
2023-01-10T17:41:46.075Z,101570.84
2023-01-10T17:44:14.218Z,101564.25
2023-01-10T17:46:42.101Z,101586.19
2023-01-10T17:49:11.866Z,101598.75
2023-01-10T17:51:41.072Z,101544.91
2023-01-10T17:54:08.736Z,101534.31
2023-01-10T17:56:36.523Z,101592.00
2023-01-10T17:59:04.233Z,101602.84
2023-01-10T18:01:32.233Z,101591.03
2023-01-10T18:04:00.337Z,101615.13
2023-01-10T18:06:28.916Z,101608.41
2023-01-10T18:08:56.773Z,101571.34
2023-01-10T18:11:25.444Z,101606.34
2023-01-10T18:13:53.549Z,101576.63
2023-01-10T18:16:22.694Z,101565.97
2023-01-10T18:18:50.858Z,101605.13
2023-01-10T18:21:20.925Z,101609.50
2023-01-10T18:23:50.080Z,101554.28
2023-01-10T18:26:18.060Z,101548.56
2023-01-10T18:28:45.922Z,101616.00
2023-01-10T18:31:17.296Z,101593.84
2023-01-10T18:33:47.025Z,101612.13
2023-01-10T18:36:17.644Z,101607.16
2023-01-10T18:38:49.120Z,101614.22
2023-01-10T18:41:17.753Z,101607.16
2023-01-10T18:43:46.266Z,101613.75
2023-01-10T18:46:20.535Z,101598.50
2023-01-10T18:48:51.686Z,101608.91
2023-01-10T18:51:19.748Z,101608.91
2023-01-10T18:53:49.075Z,101542.78
2023-01-10T18:56:17.343Z,101604.25
2023-01-10T18:58:45.391Z,101578.25
2023-01-10T19:01:16.542Z,101580.16
2023-01-10T19:03:44.996Z,101606.13
2023-01-10T19:06:16.806Z,101599.88
2023-01-10T19:08:46.577Z,101491.94
2023-01-10T19:11:16.624Z,101607.81
2023-01-10T19:13:45.877Z,101545.38
2023-01-10T19:16:19.555Z,101587.56
2023-01-10T19:18:53.563Z,101620.28
2023-01-10T19:21:24.980Z,101562.38
2023-01-10T19:23:58.383Z,101586.69
2023-01-10T19:26:26.565Z,101578.13
2023-01-10T19:28:54.739Z,101619.16
2023-01-10T19:31:29.126Z,101581.44
2023-01-10T19:34:01.049Z,101597.53
2023-01-10T19:36:34.775Z,101583.09
2023-01-10T19:39:03.064Z,101556.72
2023-01-10T19:41:31.173Z,101568.16
2023-01-10T19:44:01.806Z,101621.47
2023-01-10T19:46:32.596Z,101589.00
2023-01-10T19:49:07.822Z,101583.38
2023-01-10T19:51:40.419Z,101582.63
2023-01-10T19:54:09.521Z,101571.69
2023-01-10T19:56:37.400Z,101592.50
2023-01-10T19:59:05.409Z,101612.69
2023-01-10T20:01:34.100Z,101564.09
2023-01-10T20:04:04.365Z,101551.50
2023-01-10T20:06:35.574Z,101599.00
2023-01-10T20:09:04.789Z,101575.81
2023-01-10T20:11:38.288Z,101613.75
2023-01-10T20:14:08.902Z,101557.50
2023-01-10T20:16:37.651Z,101609.41
2023-01-10T20:19:09.200Z,101593.00
2023-01-10T20:21:37.905Z,101615.38
2023-01-10T20:24:16.805Z,101605.81
2023-01-10T20:26:46.184Z,101577.66
2023-01-10T20:29:14.947Z,101609.31
2023-01-10T20:31:43.430Z,101607.13
2023-01-10T20:34:11.160Z,101581.72
2023-01-10T20:36:39.844Z,101599.81
2023-01-10T20:39:07.605Z,101529.16
2023-01-10T20:41:37.337Z,101602.88
2023-01-10T20:44:05.084Z,101592.00
2023-01-10T20:46:34.148Z,101509.13
2023-01-10T20:49:03.359Z,101577.19
2023-01-10T20:51:33.522Z,101597.72
2023-01-10T20:54:02.323Z,101583.59
2023-01-10T20:56:31.713Z,101571.88
2023-01-10T20:59:00.049Z,101579.25
2023-01-10T21:01:34.577Z,101581.97
2023-01-10T21:04:09.834Z,101462.06
2023-01-10T21:06:37.861Z,101534.19
2023-01-10T21:09:06.192Z,101544.16
2023-01-10T21:11:47.532Z,101548.34
2023-01-10T21:14:19.832Z,101486.75
2023-01-10T21:16:49.435Z,101527.53
2023-01-10T21:19:17.491Z,101511.97
2023-01-10T21:21:45.324Z,101510.88
2023-01-10T21:24:13.187Z,101518.25
2023-01-10T21:26:41.008Z,101508.41
2023-01-10T21:29:08.902Z,101526.16
2023-01-10T21:31:38.166Z,101540.03
2023-01-10T21:34:05.975Z,101557.47
2023-01-10T21:36:33.703Z,101525.78
2023-01-10T21:39:01.490Z,101551.41
2023-01-10T21:41:47.880Z,101554.41
2023-01-10T21:44:15.746Z,101539.38
2023-01-10T21:46:46.915Z,101506.03
2023-01-10T21:49:15.501Z,101550.81
2023-01-10T21:51:44.025Z,101503.28
2023-01-10T21:54:11.846Z,101533.81
2023-01-10T21:56:40.865Z,101532.19
2023-01-10T21:59:08.764Z,101522.34
2023-01-10T22:01:36.460Z,101551.81
2023-01-10T22:04:04.501Z,101512.72
2023-01-10T22:06:32.437Z,101542.25
2023-01-10T22:09:00.229Z,101532.19
2023-01-10T22:11:28.083Z,101505.38
2023-01-10T22:13:57.301Z,101497.50
2023-01-10T22:16:25.154Z,101509.75
2023-01-10T22:18:53.029Z,101506.72
2023-01-10T22:21:22.398Z,101520.72
2023-01-10T22:23:50.258Z,101531.13
2023-01-10T22:26:17.961Z,101531.13
2023-01-10T22:28:46.019Z,101515.28
2023-01-10T22:31:14.052Z,101526.22
2023-01-10T22:33:42.877Z,101473.69
2023-01-10T22:36:15.514Z,101531.38
2023-01-10T22:38:44.133Z,101477.28
2023-01-10T22:41:20.139Z,101502.97
2023-01-10T22:43:48.132Z,101506.31
2023-01-10T22:46:16.345Z,101522.91
2023-01-10T22:48:44.900Z,101525.13
2023-01-10T22:51:14.265Z,101464.19
2023-01-10T22:53:46.059Z,101528.88
2023-01-10T22:56:13.834Z,101530.75
2023-01-10T22:58:47.803Z,101514.66
2023-01-10T23:01:18.571Z,101481.38
2023-01-10T23:03:46.625Z,101509.25
2023-01-10T23:06:15.400Z,101522.03
2023-01-10T23:08:43.679Z,101519.38
2023-01-10T23:11:14.197Z,101513.13
2023-01-10T23:13:42.496Z,101504.09
2023-01-10T23:16:14.804Z,101513.94
2023-01-10T23:18:43.213Z,101458.69
2023-01-10T23:21:11.626Z,101497.22
2023-01-10T23:23:39.340Z,101492.59
2023-01-10T23:26:11.110Z,101501.34
2023-01-10T23:28:47.232Z,101510.09
2023-01-10T23:31:17.733Z,101511.16
2023-01-10T23:33:45.898Z,101494.50
2023-01-10T23:36:14.124Z,101507.63
2023-01-10T23:38:41.982Z,101444.56
2023-01-10T23:41:09.890Z,101475.75
2023-01-10T23:43:37.985Z,101454.16
2023-01-10T23:46:06.843Z,101478.75
2023-01-10T23:48:35.991Z,101489.06
2023-01-10T23:51:04.026Z,101478.13
2023-01-10T23:53:31.750Z,101456.88
2023-01-10T23:56:05.335Z,101346.59
2023-01-10T23:58:33.059Z,101464.25
